Tequesta, FL (33469)

8:22 PM EST on February 10, 2016 (GMT -0500)
Rolling Hills | | Change Station
CLOSE
Current Station
Personal Weather Station
Location: Tequesta, FL
Elevation: 23 ft
Nearby Weather Stations

Elev 23 ft 26.99 °N, 80.09 °W | Updated 5 seconds ago

Partly Cloudy
Partly Cloudy
53.4 °F
Feels Like 53.4 °F
N
0.9
Wind Variable Wind from WNW
Gusts 2.5 mph

Today
High -- | Low -- °F
--% Chance of Precip.
Yesterday
High -- | Low -- °F
Precip. -- in
Pressure 30.24 in
Visibility 10.0 miles
Clouds Scattered Clouds 25000 ft
Dew Point 41 °F
Humidity 63%
Rainfall 0.00 in
Snow Depth Not available.
7:00 AM 6:08 PM
Waxing Crescent, 8% visible
METAR KPBI 110053Z 29007KT 10SM SCT250 11/05 A3024 RMK AO2 SLP239 T01110050
Pressure 30.24 in
Visibility 10.0 miles
Clouds Scattered Clouds 25000 ft
Dew Point 41 °F
Humidity 63%
Rainfall 0.00 in
Snow Depth Not available.
7:00 AM 6:08 PM
Waxing Crescent, 8% visible
METAR KPBI 110053Z 29007KT 10SM SCT250 11/05 A3024 RMK AO2 SLP239 T01110050

10-Day Weather Forecast

Almanac

Astronomy

Feb. 10, 2016 Rise Set
Actual Time
Civil Twilight
Nautical Twilight
Astronomical Twilight
Moon
Length of Visible Light
Length of Day
Tomorrow will be .
, % of the Moon is Illuminated

Today's Extremes

State Highs State Lows

Community

WunderPhotos

Upload Photos

1,891,963 photos uploaded!

WunderBlog® & News

Nearby

Air Quality

  Air Quality AQ Index Pollutant
Not available.

Snow Depth

Station Depth Elevation

Earthquake Activity

City Distance Mag. Time & Date
Minimum magnitude displayed is 2.5.

Coastal Water Temperatures

Place Temperature

Stations

Nearby Weather Stations

Station Location Temp. Windchill Dew Point Humidity Wind Precip. Elev Updated Type
                   

Watches & Warnings

There are currently no watches in effect.